Time;durP1;ratioP1;P1;durP2;ratioP2;P2;SDS_P1;SDS_P2;PMS_P1;PMS_P2;Temp;Humidity;BMP_temperature;BMP_pressure;BME280_temperature;BME280_humidity;BME280_pressure;Samples;Min_cycle;Max_cycle;Signal;HPM_P1;HPM_P2
2022/03/02 00:01:32;;;;;;;;;;;23.60;39.40;;;;;;1607464;74;1101;-74
2022/03/02 00:03:34;;;;;;;;;;;23.70;39.60;;;;;;1607685;73;771;-74
2022/03/02 00:05:36;;;;;;;;;;;23.70;39.60;;;;;;1607474;74;756;-75
2022/03/02 00:07:38;;;;;;;;;;;23.60;39.50;;;;;;1609668;73;738;-73
2022/03/02 00:09:44;;;;;;;;;;;23.60;39.50;;;;;;1607162;73;730;-72
2022/03/02 00:11:51;;;;;;;;;;;23.60;39.50;;;;;;1603355;73;747;-74
2022/03/02 00:14:00;;;;;;;;;;;23.60;39.50;;;;;;1603253;73;748;-74
2022/03/02 00:16:06;;;;;;;;;;;23.60;39.60;;;;;;1608377;73;716;-73
2022/03/02 00:18:07;;;;;;;;;;;23.60;39.50;;;;;;1605285;73;742;-77
2022/03/02 00:20:15;;;;;;;;;;;23.60;39.50;;;;;;1606689;73;1951;-77
2022/03/02 00:22:18;;;;;;;;;;;23.60;39.50;;;;;;1609138;74;771;-74
2022/03/02 00:24:26;;;;;;;;;;;23.60;39.50;;;;;;1605312;73;753;-75
2022/03/02 00:26:31;;;;;;;;;;;23.60;39.60;;;;;;1605161;74;774;-78
2022/03/02 00:28:35;;;;;;;;;;;23.60;39.50;;;;;;1606779;73;736;-77
2022/03/02 00:30:38;;;;;;;;;;;23.60;39.50;;;;;;1611513;72;1154;-74
2022/03/02 00:32:40;;;;;;;;;;;23.60;39.60;;;;;;1605302;73;895;-73
2022/03/02 00:34:46;;;;;;;;;;;23.60;39.70;;;;;;1606665;74;743;-73
2022/03/02 00:36:51;;;;;;;;;;;23.60;39.70;;;;;;1605679;73;753;-73
2022/03/02 00:38:55;;;;;;;;;;;23.60;39.70;;;;;;1603345;73;1035;-74
2022/03/02 00:41:00;;;;;;;;;;;23.60;39.70;;;;;;1606764;73;1944;-73
2022/03/02 00:43:03;;;;;;;;;;;23.60;39.60;;;;;;1607338;74;767;-72
2022/03/02 00:45:05;;;;;;;;;;;23.60;39.70;;;;;;1606687;73;796;-72
2022/03/02 00:47:07;;;;;;;;;;;23.60;39.70;;;;;;1604846;74;785;-72
2022/03/02 00:49:09;;;;;;;;;;;23.60;39.70;;;;;;1604967;73;889;-72
2022/03/02 00:51:11;;;;;;;;;;;23.50;39.70;;;;;;1605733;73;1136;-72
2022/03/02 00:53:13;;;;;;;;;;;23.60;39.70;;;;;;1608574;73;786;-72
2022/03/02 00:55:15;;;;;;;;;;;23.50;39.70;;;;;;1609064;74;775;-72
2022/03/02 00:57:17;;;;;;;;;;;23.50;39.70;;;;;;1605201;73;785;-73
2022/03/02 00:59:18;;;;;;;;;;;23.50;39.80;;;;;;1604855;73;723;-76
2022/03/02 01:01:20;;;;;;;;;;;23.50;39.80;;;;;;1607419;72;1941;-72
2022/03/02 01:03:22;;;;;;;;;;;23.60;39.80;;;;;;1604541;74;858;-72
2022/03/02 01:05:24;;;;;;;;;;;23.50;39.90;;;;;;1607302;72;781;-73
2022/03/02 01:07:26;;;;;;;;;;;23.50;39.90;;;;;;1605215;72;762;-72
2022/03/02 01:09:28;;;;;;;;;;;23.50;39.90;;;;;;1606771;73;781;-72
2022/03/02 01:11:30;;;;;;;;;;;23.60;40.00;;;;;;1606818;73;1150;-73
2022/03/02 01:13:32;;;;;;;;;;;23.40;39.80;;;;;;1609750;73;678;-73
2022/03/02 01:15:34;;;;;;;;;;;23.60;39.90;;;;;;1603666;73;749;-78
2022/03/02 01:17:36;;;;;;;;;;;23.50;40.00;;;;;;1599122;72;664;-74
2022/03/02 01:19:39;;;;;;;;;;;23.40;39.90;;;;;;1602981;72;1924;-74
2022/03/02 01:21:40;;;;;;;;;;;23.50;40.00;;;;;;1607578;72;1161;-73
2022/03/02 01:23:43;;;;;;;;;;;23.50;40.10;;;;;;1594372;72;789;-73
2022/03/02 01:25:45;;;;;;;;;;;23.40;39.90;;;;;;1604827;74;817;-73
2022/03/02 01:27:47;;;;;;;;;;;23.50;40.10;;;;;;1596735;74;697;-73
2022/03/02 01:29:51;;;;;;;;;;;23.50;40.10;;;;;;1607088;72;1141;-73
2022/03/02 01:31:52;;;;;;;;;;;23.50;40.10;;;;;;1582896;74;815;-74
2022/03/02 01:33:54;;;;;;;;;;;23.40;40.00;;;;;;1590129;72;794;-72
2022/03/02 01:35:56;;;;;;;;;;;23.50;40.10;;;;;;1594176;74;657;-72
2022/03/02 01:37:58;;;;;;;;;;;23.40;40.00;;;;;;1599841;72;707;-72
2022/03/02 01:40:00;;;;;;;;;;;23.50;40.10;;;;;;1609641;72;1935;-72
2022/03/02 01:42:05;;;;;;;;;;;23.50;40.20;;;;;;1610721;72;732;-72
2022/03/02 01:44:08;;;;;;;;;;;23.50;40.20;;;;;;1598081;74;639;-71
2022/03/02 01:46:10;;;;;;;;;;;23.50;40.20;;;;;;1591136;72;988;-73
2022/03/02 01:48:12;;;;;;;;;;;23.50;40.20;;;;;;1590438;74;730;-73
2022/03/02 01:50:14;;;;;;;;;;;23.50;40.20;;;;;;1608453;74;1187;-74
2022/03/02 01:52:16;;;;;;;;;;;23.50;40.20;;;;;;1593738;73;808;-74
2022/03/02 01:54:18;;;;;;;;;;;23.50;40.20;;;;;;1595267;72;734;-72
2022/03/02 01:56:20;;;;;;;;;;;23.50;40.40;;;;;;1600409;74;684;-71
2022/03/02 01:58:21;;;;;;;;;;;23.50;40.30;;;;;;1594633;74;732;-72
2022/03/02 02:00:23;;;;;;;;;;;23.50;40.20;;;;;;1606109;74;1944;-72
2022/03/02 02:02:25;;;;;;;;;;;23.50;40.20;;;;;;1614409;72;784;-72
2022/03/02 02:04:27;;;;;;;;;;;23.50;40.20;;;;;;1598858;74;758;-72
2022/03/02 02:06:30;;;;;;;;;;;23.50;40.20;;;;;;1605741;74;689;-72
2022/03/02 02:08:32;;;;;;;;;;;23.50;40.30;;;;;;1599525;74;750;-73
2022/03/02 02:10:34;;;;;;;;;;;23.50;40.30;;;;;;1593704;72;1125;-73
2022/03/02 02:12:35;;;;;;;;;;;23.60;40.30;;;;;;1584266;74;680;-73
2022/03/02 02:14:38;;;;;;;;;;;23.50;40.20;;;;;;1603531;72;671;-73
2022/03/02 02:16:39;;;;;;;;;;;23.60;40.30;;;;;;1609056;73;787;-74
2022/03/02 02:18:41;;;;;;;;;;;23.60;40.30;;;;;;1607061;74;746;-74
2022/03/02 02:20:43;;;;;;;;;;;23.60;40.20;;;;;;1604823;73;1930;-72
2022/03/02 02:22:46;;;;;;;;;;;23.60;40.20;;;;;;1605061;73;762;-72
2022/03/02 02:24:47;;;;;;;;;;;23.60;40.20;;;;;;1604774;74;750;-70
2022/03/02 02:26:49;;;;;;;;;;;23.60;40.20;;;;;;1600724;73;731;-71
2022/03/02 02:28:51;;;;;;;;;;;23.50;40.20;;;;;;1605211;73;769;-73
2022/03/02 02:30:55;;;;;;;;;;;23.60;40.20;;;;;;1602431;72;2092;-72
2022/03/02 02:32:57;;;;;;;;;;;23.50;40.20;;;;;;1586323;74;700;-72
2022/03/02 02:34:59;;;;;;;;;;;23.60;40.30;;;;;;1597106;74;817;-72
2022/03/02 02:37:01;;;;;;;;;;;23.60;40.30;;;;;;1599689;74;787;-72
2022/03/02 02:39:02;;;;;;;;;;;23.60;40.20;;;;;;1598253;74;655;-69
2022/03/02 02:41:04;;;;;;;;;;;23.60;40.20;;;;;;1591440;73;2003;-72
2022/03/02 02:43:06;;;;;;;;;;;23.60;40.20;;;;;;1592644;74;729;-72
2022/03/02 02:45:08;;;;;;;;;;;23.60;40.20;;;;;;1590245;74;790;-71
2022/03/02 02:47:11;;;;;;;;;;;23.60;40.30;;;;;;1601264;74;705;-72
2022/03/02 02:49:13;;;;;;;;;;;23.70;40.40;;;;;;1598945;74;707;-73
2022/03/02 02:51:15;;;;;;;;;;;23.70;40.40;;;;;;1599832;73;1176;-72
2022/03/02 02:53:17;;;;;;;;;;;23.70;40.40;;;;;;1593924;74;764;-71
2022/03/02 02:55:19;;;;;;;;;;;23.60;40.30;;;;;;1594004;74;722;-72
2022/03/02 02:57:21;;;;;;;;;;;23.60;40.40;;;;;;1603685;73;767;-72
2022/03/02 02:59:24;;;;;;;;;;;23.70;40.50;;;;;;1593628;74;720;-72
2022/03/02 03:01:26;;;;;;;;;;;23.70;40.50;;;;;;1594969;73;1941;-72
2022/03/02 03:03:28;;;;;;;;;;;23.60;40.50;;;;;;1598560;74;712;-72
2022/03/02 03:05:31;;;;;;;;;;;23.60;40.40;;;;;;1587958;74;689;-72
2022/03/02 03:07:33;;;;;;;;;;;23.70;40.60;;;;;;1586687;73;715;-73
2022/03/02 03:09:35;;;;;;;;;;;23.60;40.50;;;;;;1592433;74;931;-74
2022/03/02 03:11:40;;;;;;;;;;;23.70;40.60;;;;;;1594160;73;1122;-72
2022/03/02 03:13:43;;;;;;;;;;;23.70;40.70;;;;;;1592189;74;744;-72
2022/03/02 03:15:45;;;;;;;;;;;23.60;40.60;;;;;;1588535;74;727;-72
2022/03/02 03:17:47;;;;;;;;;;;23.70;40.70;;;;;;1589217;74;719;-69
2022/03/02 03:19:48;;;;;;;;;;;23.60;40.60;;;;;;1584982;74;754;-71
2022/03/02 03:21:50;;;;;;;;;;;23.60;40.70;;;;;;1582606;74;1953;-71
2022/03/02 03:23:52;;;;;;;;;;;23.70;40.70;;;;;;1598255;73;714;-70
2022/03/02 03:25:54;;;;;;;;;;;23.70;40.70;;;;;;1590592;74;705;-71
2022/03/02 03:27:56;;;;;;;;;;;23.60;40.60;;;;;;1591711;74;793;-71
2022/03/02 03:29:59;;;;;;;;;;;23.70;40.80;;;;;;1600412;74;703;-71
2022/03/02 03:32:01;;;;;;;;;;;23.70;40.80;;;;;;1597253;73;1080;-71
2022/03/02 03:34:03;;;;;;;;;;;23.70;40.80;;;;;;1594154;74;715;-71
2022/03/02 03:36:05;;;;;;;;;;;23.70;40.80;;;;;;1591814;74;707;-71
2022/03/02 03:38:07;;;;;;;;;;;23.70;40.70;;;;;;1595805;74;723;-69
2022/03/02 03:40:09;;;;;;;;;;;23.80;40.70;;;;;;1596362;74;1152;-75
2022/03/02 03:42:11;;;;;;;;;;;23.80;40.70;;;;;;1581215;74;1939;-71
2022/03/02 03:44:13;;;;;;;;;;;23.80;40.70;;;;;;1584250;74;763;-71
2022/03/02 03:46:15;;;;;;;;;;;23.90;40.70;;;;;;1586564;74;777;-73
2022/03/02 03:48:17;;;;;;;;;;;23.80;40.60;;;;;;1585676;74;712;-70
2022/03/02 03:50:20;;;;;;;;;;;23.90;40.60;;;;;;1590418;73;1182;-70
2022/03/02 03:52:22;;;;;;;;;;;23.90;40.60;;;;;;1580446;74;713;-71
2022/03/02 03:54:24;;;;;;;;;;;23.90;40.60;;;;;;1584111;74;765;-70
2022/03/02 03:56:27;;;;;;;;;;;23.90;40.60;;;;;;1590869;73;715;-71
2022/03/02 03:58:29;;;;;;;;;;;24.00;40.50;;;;;;1578139;74;635;-72
2022/03/02 04:00:31;;;;;;;;;;;24.00;40.60;;;;;;1584518;74;1155;-69
2022/03/02 04:02:33;;;;;;;;;;;24.00;40.60;;;;;;1590004;74;1937;-71
2022/03/02 04:04:35;;;;;;;;;;;24.00;40.60;;;;;;1580467;74;755;-71
2022/03/02 04:06:37;;;;;;;;;;;24.00;40.60;;;;;;1580267;74;733;-71
2022/03/02 04:08:39;;;;;;;;;;;24.00;40.60;;;;;;1587512;74;730;-71
2022/03/02 04:10:41;;;;;;;;;;;24.20;40.80;;;;;;1581865;74;1152;-71
2022/03/02 04:12:43;;;;;;;;;;;24.20;40.80;;;;;;1578278;74;770;-72
2022/03/02 04:14:45;;;;;;;;;;;24.00;40.70;;;;;;1584444;74;772;-72
2022/03/02 04:16:47;;;;;;;;;;;24.10;40.80;;;;;;1582010;74;725;-72
2022/03/02 04:18:48;;;;;;;;;;;24.00;40.70;;;;;;1588386;74;741;-70
2022/03/02 04:20:52;;;;;;;;;;;24.10;40.90;;;;;;1585538;74;1954;-72
2022/03/02 04:22:54;;;;;;;;;;;24.10;40.90;;;;;;1584264;74;713;-72
2022/03/02 04:24:56;;;;;;;;;;;24.00;40.80;;;;;;1592586;74;721;-70
2022/03/02 04:26:58;;;;;;;;;;;24.20;41.00;;;;;;1578310;74;697;-73
2022/03/02 04:28:59;;;;;;;;;;;24.00;40.90;;;;;;1583644;75;744;-74
2022/03/02 04:31:01;;;;;;;;;;;24.00;40.90;;;;;;1593383;73;1138;-72
2022/03/02 04:33:03;;;;;;;;;;;24.20;41.00;;;;;;1589263;74;758;-70
2022/03/02 04:35:06;;;;;;;;;;;24.10;41.00;;;;;;1594844;74;710;-74
2022/03/02 04:37:08;;;;;;;;;;;24.10;41.00;;;;;;1583429;73;719;-75
2022/03/02 04:39:10;;;;;;;;;;;24.10;41.00;;;;;;1580300;75;789;-71
2022/03/02 04:41:12;;;;;;;;;;;24.10;41.00;;;;;;1587251;74;1949;-69
2022/03/02 04:43:13;;;;;;;;;;;24.20;41.00;;;;;;1591795;74;767;-71
2022/03/02 04:45:15;;;;;;;;;;;24.10;41.00;;;;;;1583372;74;781;-71
2022/03/02 04:47:17;;;;;;;;;;;24.20;41.00;;;;;;1584724;75;722;-67
2022/03/02 04:49:19;;;;;;;;;;;24.20;41.00;;;;;;1585604;74;677;-71
2022/03/02 04:51:21;;;;;;;;;;;24.10;41.00;;;;;;1584688;73;1200;-71
2022/03/02 04:53:24;;;;;;;;;;;24.10;41.00;;;;;;1584197;75;634;-71
2022/03/02 04:55:25;;;;;;;;;;;24.20;41.00;;;;;;1587743;74;729;-71
2022/03/02 04:57:27;;;;;;;;;;;24.10;41.00;;;;;;1584457;74;717;-71
2022/03/02 04:59:29;;;;;;;;;;;24.10;41.00;;;;;;1579934;74;801;-71
2022/03/02 05:01:31;;;;;;;;;;;24.20;41.00;;;;;;1584245;73;1947;-70
2022/03/02 05:03:33;;;;;;;;;;;24.20;41.00;;;;;;1584773;74;795;-71
2022/03/02 05:05:36;;;;;;;;;;;24.10;41.00;;;;;;1571243;74;709;-70
2022/03/02 05:07:38;;;;;;;;;;;24.10;41.00;;;;;;1586720;74;721;-71
2022/03/02 05:09:39;;;;;;;;;;;24.20;41.00;;;;;;1586525;73;725;-69
2022/03/02 05:11:41;;;;;;;;;;;24.10;41.00;;;;;;1582320;74;1142;-69
2022/03/02 05:13:43;;;;;;;;;;;24.10;41.00;;;;;;1582001;75;678;-71
2022/03/02 05:15:45;;;;;;;;;;;24.20;41.00;;;;;;1585400;75;689;-71
2022/03/02 05:17:47;;;;;;;;;;;24.20;41.00;;;;;;1579739;74;681;-70
2022/03/02 05:19:49;;;;;;;;;;;24.20;40.90;;;;;;1592816;74;725;-71
2022/03/02 05:21:51;;;;;;;;;;;24.20;41.00;;;;;;1581783;74;1957;-74
2022/03/02 05:23:53;;;;;;;;;;;24.20;40.90;;;;;;1584416;74;722;-71
2022/03/02 05:25:55;;;;;;;;;;;24.20;40.90;;;;;;1595920;73;718;-71
2022/03/02 05:27:57;;;;;;;;;;;24.20;40.90;;;;;;1588301;74;804;-70
2022/03/02 05:29:59;;;;;;;;;;;24.20;40.90;;;;;;1578779;74;718;-69
2022/03/02 05:32:00;;;;;;;;;;;24.30;41.00;;;;;;1581388;74;1081;-71
2022/03/02 05:34:02;;;;;;;;;;;24.20;40.80;;;;;;1584292;74;703;-70
2022/03/02 05:36:04;;;;;;;;;;;24.20;40.70;;;;;;1598035;74;675;-70
2022/03/02 05:38:07;;;;;;;;;;;24.20;40.80;;;;;;1587394;74;712;-70
2022/03/02 05:40:09;;;;;;;;;;;24.20;40.80;;;;;;1595043;73;1228;-70
2022/03/02 05:42:11;;;;;;;;;;;24.20;40.70;;;;;;1584513;74;1910;-70
2022/03/02 05:44:13;;;;;;;;;;;24.20;40.80;;;;;;1586571;75;598;-70
2022/03/02 05:46:15;;;;;;;;;;;24.20;40.80;;;;;;1584232;74;729;-71
2022/03/02 05:48:17;;;;;;;;;;;24.20;40.80;;;;;;1585091;74;715;-73
2022/03/02 05:50:18;;;;;;;;;;;24.20;40.80;;;;;;1586338;73;1220;-69
2022/03/02 05:52:20;;;;;;;;;;;24.20;40.90;;;;;;1572933;75;714;-71
2022/03/02 05:54:22;;;;;;;;;;;24.30;41.00;;;;;;1582469;74;715;-70
2022/03/02 05:56:25;;;;;;;;;;;24.20;40.90;;;;;;1584226;75;702;-71
2022/03/02 05:58:26;;;;;;;;;;;24.30;41.00;;;;;;1585305;75;752;-68
2022/03/02 06:00:28;;;;;;;;;;;24.30;41.00;;;;;;1583586;74;1099;-72
2022/03/02 06:02:30;;;;;;;;;;;24.30;40.90;;;;;;1583450;74;1921;-71
2022/03/02 06:04:32;;;;;;;;;;;24.30;41.00;;;;;;1592474;74;711;-72
2022/03/02 06:06:35;;;;;;;;;;;24.30;40.90;;;;;;1583279;74;695;-71
2022/03/02 06:08:37;;;;;;;;;;;24.30;40.90;;;;;;1578568;74;761;-70
2022/03/02 06:10:38;;;;;;;;;;;24.30;40.80;;;;;;1577061;74;1157;-71
2022/03/02 06:12:40;;;;;;;;;;;24.30;40.80;;;;;;1581978;74;789;-72
2022/03/02 06:14:42;;;;;;;;;;;24.30;40.70;;;;;;1578063;75;730;-74
2022/03/02 06:16:44;;;;;;;;;;;24.30;40.70;;;;;;1578561;74;737;-71
2022/03/02 06:18:46;;;;;;;;;;;24.30;40.70;;;;;;1589958;74;749;-73
2022/03/02 06:20:49;;;;;;;;;;;24.30;40.70;;;;;;1575132;74;1149;-73
2022/03/02 06:22:51;;;;;;;;;;;24.30;40.70;;;;;;1579382;74;1966;-74
2022/03/02 06:24:53;;;;;;;;;;;24.30;40.60;;;;;;1588491;74;702;-72
2022/03/02 06:26:55;;;;;;;;;;;24.30;40.90;;;;;;1584276;74;645;-73
2022/03/02 06:28:57;;;;;;;;;;;24.30;40.90;;;;;;1584718;75;705;-69
2022/03/02 06:30:59;;;;;;;;;;;24.30;41.00;;;;;;1582458;74;1084;-71
2022/03/02 06:33:01;;;;;;;;;;;24.30;41.20;;;;;;1586350;73;714;-71
2022/03/02 06:35:02;;;;;;;;;;;24.30;41.20;;;;;;1593711;73;707;-71
2022/03/02 06:37:04;;;;;;;;;;;24.30;41.00;;;;;;1584344;73;669;-72
2022/03/02 06:39:06;;;;;;;;;;;24.30;40.90;;;;;;1584873;73;745;-70
2022/03/02 06:41:14;;;;;;;;;;;24.30;40.90;;;;;;1570334;73;1177;-72
2022/03/02 06:43:18;;;;;;;;;;;24.30;41.00;;;;;;1572113;73;1911;-71
2022/03/02 06:45:37;;;;;;;;;;;24.30;40.90;;;;;;1580529;73;755;-72
2022/03/02 06:47:47;;;;;;;;;;;24.30;40.90;;;;;;1570998;73;799;-71
2022/03/02 06:50:06;;;;;;;;;;;24.30;40.90;;;;;;1575591;75;700;-70
2022/03/02 06:52:08;;;;;;;;;;;24.30;40.90;;;;;;1574169;75;666;-71
2022/03/02 06:54:12;;;;;;;;;;;24.30;40.90;;;;;;1529828;76;775;-70
2022/03/02 06:56:14;;;;;;;;;;;24.30;41.00;;;;;;1520258;76;740;-70
2022/03/02 06:58:15;;;;;;;;;;;24.30;41.20;;;;;;1557265;74;655;-69
2022/03/02 07:00:17;;;;;;;;;;;24.30;41.20;;;;;;1562554;74;1150;-71
2022/03/02 07:02:30;;;;;;;;;;;24.30;41.30;;;;;;1526556;77;1954;-71
2022/03/02 07:04:35;;;;;;;;;;;24.30;41.30;;;;;;1521230;77;1120;-70
2022/03/02 07:06:37;;;;;;;;;;;24.20;41.30;;;;;;1575364;75;818;-73
2022/03/02 07:08:40;;;;;;;;;;;24.30;41.50;;;;;;1536681;76;700;-71
2022/03/02 07:10:42;;;;;;;;;;;24.30;41.20;;;;;;1581530;74;1130;-70
2022/03/02 07:12:43;;;;;;;;;;;24.40;41.00;;;;;;1572864;74;786;-70
2022/03/02 07:14:45;;;;;;;;;;;24.40;40.80;;;;;;1581358;74;781;-71
2022/03/02 07:16:48;;;;;;;;;;;24.50;40.70;;;;;;1580848;75;696;-69
2022/03/02 07:18:51;;;;;;;;;;;24.50;40.60;;;;;;1583116;74;787;-69
2022/03/02 07:20:53;;;;;;;;;;;24.50;40.50;;;;;;1539274;76;1175;-72
2022/03/02 07:22:55;;;;;;;;;;;24.50;40.50;;;;;;1573528;74;1949;-70
2022/03/02 07:24:59;;;;;;;;;;;24.50;40.40;;;;;;1570658;75;679;-70
2022/03/02 07:27:01;;;;;;;;;;;24.50;40.30;;;;;;1585693;74;738;-68
2022/03/02 07:29:02;;;;;;;;;;;24.50;40.30;;;;;;1576770;75;733;-71
2022/03/02 07:31:05;;;;;;;;;;;24.50;40.20;;;;;;1576571;74;1152;-71
2022/03/02 07:33:07;;;;;;;;;;;24.50;40.20;;;;;;1578224;74;775;-70
2022/03/02 07:35:09;;;;;;;;;;;24.50;40.20;;;;;;1563007;74;767;-70
2022/03/02 07:37:10;;;;;;;;;;;24.50;40.20;;;;;;1568457;75;774;-71
2022/03/02 07:39:12;;;;;;;;;;;24.50;40.20;;;;;;1556660;74;686;-70
2022/03/02 07:41:15;;;;;;;;;;;24.50;40.10;;;;;;1587248;74;1174;-71
2022/03/02 07:43:17;;;;;;;;;;;24.50;40.10;;;;;;1566796;75;1898;-71
2022/03/02 07:45:19;;;;;;;;;;;24.50;40.00;;;;;;1583805;74;738;-69
2022/03/02 07:47:21;;;;;;;;;;;24.50;40.10;;;;;;1575270;74;763;-71
2022/03/02 07:49:23;;;;;;;;;;;24.50;40.10;;;;;;1565518;75;693;-70
2022/03/02 07:51:25;;;;;;;;;;;24.50;40.00;;;;;;1575614;74;1165;-71
2022/03/02 07:53:27;;;;;;;;;;;24.60;40.00;;;;;;1577122;74;725;-71
2022/03/02 07:55:28;;;;;;;;;;;24.50;40.00;;;;;;1578189;74;738;-71
2022/03/02 07:57:30;;;;;;;;;;;24.50;40.00;;;;;;1560525;74;798;-72
2022/03/02 07:59:34;;;;;;;;;;;24.50;40.00;;;;;;1580807;75;716;-69
2022/03/02 08:01:37;;;;;;;;;;;24.60;40.00;;;;;;1567506;74;1172;-70
2022/03/02 08:03:39;;;;;;;;;;;24.50;40.00;;;;;;1579360;74;1943;-72
2022/03/02 08:05:43;;;;;;;;;;;24.50;40.00;;;;;;1569469;74;824;-70
2022/03/02 08:07:44;;;;;;;;;;;24.50;40.00;;;;;;1577752;74;1598;-70
2022/03/02 08:09:46;;;;;;;;;;;24.50;40.00;;;;;;1574273;74;730;-69
2022/03/02 08:11:48;;;;;;;;;;;24.50;40.00;;;;;;1573158;74;1133;-72
2022/03/02 08:13:50;;;;;;;;;;;24.50;40.00;;;;;;1582025;74;677;-73
2022/03/02 08:15:52;;;;;;;;;;;24.50;40.00;;;;;;1573766;74;743;-69
2022/03/02 08:17:54;;;;;;;;;;;24.50;40.00;;;;;;1581326;75;750;-71
2022/03/02 08:19:57;;;;;;;;;;;24.50;40.00;;;;;;1572728;74;783;-72
2022/03/02 08:22:00;;;;;;;;;;;24.40;39.90;;;;;;1571851;75;1125;-72
2022/03/02 08:24:03;;;;;;;;;;;24.40;39.90;;;;;;1578268;74;1949;-70
2022/03/02 08:26:05;;;;;;;;;;;24.50;40.00;;;;;;1570744;74;807;-72
2022/03/02 08:28:09;;;;;;;;;;;24.50;40.00;;;;;;1570983;74;736;-69
2022/03/02 08:30:11;;;;;;;;;;;24.50;40.00;;;;;;1569848;75;1159;-70
2022/03/02 08:32:13;;;;;;;;;;;24.50;40.00;;;;;;1590537;74;718;-72
2022/03/02 08:34:15;;;;;;;;;;;24.50;40.00;;;;;;1580482;74;804;-70
2022/03/02 08:36:17;;;;;;;;;;;24.50;40.00;;;;;;1579466;74;770;-70
2022/03/02 08:38:19;;;;;;;;;;;24.50;40.00;;;;;;1585340;74;704;-70
2022/03/02 08:40:21;;;;;;;;;;;24.50;40.10;;;;;;1584040;74;1168;-70
2022/03/02 08:42:23;;;;;;;;;;;24.50;40.10;;;;;;1581145;74;1917;-69
2022/03/02 08:44:24;;;;;;;;;;;24.40;40.00;;;;;;1583610;74;711;-69
2022/03/02 08:46:27;;;;;;;;;;;24.50;40.00;;;;;;1579695;74;785;-70
2022/03/02 08:48:28;;;;;;;;;;;24.40;40.00;;;;;;1575928;75;719;-71
2022/03/02 08:50:30;;;;;;;;;;;24.50;40.00;;;;;;1582649;74;1164;-71
2022/03/02 08:52:33;;;;;;;;;;;24.50;40.10;;;;;;1575038;74;777;-71
2022/03/02 08:54:45;;;;;;;;;;;24.40;40.00;;;;;;1580999;74;723;-71
2022/03/02 08:56:48;;;;;;;;;;;24.50;40.10;;;;;;1566249;75;965;-71
2022/03/02 08:58:50;;;;;;;;;;;24.40;40.20;;;;;;1573340;75;767;-70
2022/03/02 09:00:52;;;;;;;;;;;24.30;40.30;;;;;;1580247;74;1189;-71
2022/03/02 09:02:54;;;;;;;;;;;24.30;40.40;;;;;;1577809;74;1911;-71
2022/03/02 09:04:57;;;;;;;;;;;24.40;40.30;;;;;;1579225;75;718;-70
2022/03/02 09:06:59;;;;;;;;;;;24.40;40.10;;;;;;1575381;75;681;-73
2022/03/02 09:09:01;;;;;;;;;;;24.40;40.00;;;;;;1579448;75;736;-72
2022/03/02 09:11:03;;;;;;;;;;;24.30;39.80;;;;;;1569875;74;1165;-71
2022/03/02 09:13:05;;;;;;;;;;;24.30;39.60;;;;;;1579055;74;730;-71
2022/03/02 09:15:07;;;;;;;;;;;24.30;39.60;;;;;;1571632;74;733;-72
2022/03/02 09:17:09;;;;;;;;;;;24.20;39.30;;;;;;1581852;75;715;-71
2022/03/02 09:19:11;;;;;;;;;;;24.20;39.30;;;;;;1581476;74;783;-71
2022/03/02 09:21:13;;;;;;;;;;;24.20;39.30;;;;;;1571513;74;1159;-70
2022/03/02 09:23:15;;;;;;;;;;;24.20;39.20;;;;;;1578739;74;1907;-71
2022/03/02 09:25:17;;;;;;;;;;;24.20;38.90;;;;;;1553465;75;710;-70
2022/03/02 09:27:19;;;;;;;;;;;24.20;39.10;;;;;;1577703;74;724;-71
2022/03/02 09:29:21;;;;;;;;;;;24.20;38.80;;;;;;1577613;74;726;-72
2022/03/02 09:31:23;;;;;;;;;;;24.20;38.50;;;;;;1577337;73;1188;-73
2022/03/02 09:33:24;;;;;;;;;;;24.20;38.50;;;;;;1577617;75;820;-70
2022/03/02 09:35:26;;;;;;;;;;;24.20;38.60;;;;;;1572501;75;798;-71
2022/03/02 09:37:28;;;;;;;;;;;24.10;38.40;;;;;;1576774;75;734;-70
2022/03/02 09:39:30;;;;;;;;;;;24.10;38.40;;;;;;1577804;74;706;-69
2022/03/02 09:41:43;;;;;;;;;;;24.10;38.30;;;;;;1570703;74;1179;-70
2022/03/02 09:43:47;;;;;;;;;;;24.00;38.10;;;;;;1568812;74;1907;-68
2022/03/02 09:45:50;;;;;;;;;;;24.00;37.80;;;;;;1577850;74;838;-70
2022/03/02 09:47:53;;;;;;;;;;;24.00;37.70;;;;;;1567505;74;722;-71
2022/03/02 09:49:56;;;;;;;;;;;24.00;37.80;;;;;;1568604;74;796;-70
2022/03/02 09:52:05;;;;;;;;;;;24.00;37.70;;;;;;1568612;74;1104;-68
2022/03/02 09:54:08;;;;;;;;;;;24.00;37.40;;;;;;1564419;74;696;-69
2022/03/02 09:56:10;;;;;;;;;;;24.00;37.40;;;;;;1579027;74;698;-68
2022/03/02 09:58:12;;;;;;;;;;;23.90;37.20;;;;;;1573869;74;725;-70
2022/03/02 10:00:15;;;;;;;;;;;24.00;37.20;;;;;;1572998;74;1167;-72
2022/03/02 10:02:19;;;;;;;;;;;23.80;36.90;;;;;;1577092;74;939;-73
2022/03/02 10:04:22;;;;;;;;;;;23.90;37.00;;;;;;1577618;74;1908;-71
2022/03/02 10:06:24;;;;;;;;;;;23.90;37.00;;;;;;1572972;74;748;-70
2022/03/02 10:08:30;;;;;;;;;;;23.90;37.20;;;;;;1570263;74;681;-71
2022/03/02 10:10:31;;;;;;;;;;;23.90;37.10;;;;;;1572076;74;1147;-70
2022/03/02 10:12:33;;;;;;;;;;;23.90;36.90;;;;;;1574177;74;674;-69
2022/03/02 10:14:35;;;;;;;;;;;23.90;36.80;;;;;;1573135;74;649;-70
2022/03/02 10:16:38;;;;;;;;;;;23.90;36.90;;;;;;1571494;74;759;-70
2022/03/02 10:18:40;;;;;;;;;;;23.90;36.90;;;;;;1574222;74;1064;-70
2022/03/02 10:20:43;;;;;;;;;;;23.90;36.70;;;;;;1573307;75;1171;-71
2022/03/02 10:22:50;;;;;;;;;;;23.90;36.80;;;;;;1566341;74;727;-69
2022/03/02 10:24:52;;;;;;;;;;;23.90;36.90;;;;;;1569249;74;1927;-78
2022/03/02 10:26:53;;;;;;;;;;;23.90;36.90;;;;;;1571137;74;727;-72
2022/03/02 10:28:59;;;;;;;;;;;23.90;36.60;;;;;;1573358;74;714;-69
2022/03/02 10:31:02;;;;;;;;;;;23.90;36.50;;;;;;1567051;74;1227;-72
2022/03/02 10:33:06;;;;;;;;;;;23.90;36.40;;;;;;1555531;74;730;-72
2022/03/02 10:35:08;;;;;;;;;;;23.90;36.30;;;;;;1567647;74;987;-72
2022/03/02 10:37:13;;;;;;;;;;;23.80;36.20;;;;;;1590261;74;679;-72
2022/03/02 10:39:16;;;;;;;;;;;23.70;36.10;;;;;;1591473;74;776;-73
2022/03/02 10:41:19;;;;;;;;;;;23.80;35.80;;;;;;1579299;73;1206;-69
2022/03/02 10:43:21;;;;;;;;;;;23.80;35.70;;;;;;1559937;74;1921;-72
2022/03/02 10:45:23;;;;;;;;;;;23.70;35.60;;;;;;1547335;74;709;-70
2022/03/02 10:47:25;;;;;;;;;;;23.80;35.50;;;;;;1560010;74;731;-69
2022/03/02 10:49:27;;;;;;;;;;;23.80;35.30;;;;;;1567777;74;733;-65
2022/03/02 10:51:30;;;;;;;;;;;23.80;35.40;;;;;;1574253;74;1103;-70
2022/03/02 10:53:33;;;;;;;;;;;23.80;35.40;;;;;;1541872;76;611;-68
2022/03/02 10:55:35;;;;;;;;;;;23.90;35.50;;;;;;1564829;74;803;-68
2022/03/02 10:57:37;;;;;;;;;;;24.00;35.40;;;;;;1535500;74;755;-68
2022/03/02 10:59:40;;;;;;;;;;;24.00;35.40;;;;;;1572229;75;758;-68
2022/03/02 11:01:42;;;;;;;;;;;24.00;35.40;;;;;;1565584;73;1166;-68
2022/03/02 11:03:44;;;;;;;;;;;24.00;35.40;;;;;;1553120;74;1914;-68
2022/03/02 11:05:45;;;;;;;;;;;24.00;35.50;;;;;;1552571;75;775;-69
2022/03/02 11:07:47;;;;;;;;;;;24.10;35.60;;;;;;1555450;74;701;-68
2022/03/02 11:09:50;;;;;;;;;;;24.20;35.70;;;;;;1546704;74;702;-68
2022/03/02 11:11:53;;;;;;;;;;;24.10;35.70;;;;;;1566644;73;1129;-67
2022/03/02 11:13:56;;;;;;;;;;;24.20;35.80;;;;;;1552886;75;757;-68
2022/03/02 11:15:58;;;;;;;;;;;24.20;35.90;;;;;;1552514;75;704;-67
2022/03/02 11:18:00;;;;;;;;;;;24.20;36.00;;;;;;1552088;75;692;-68
2022/03/02 11:20:06;;;;;;;;;;;24.20;36.00;;;;;;1552197;75;1087;-68
2022/03/02 11:22:08;;;;;;;;;;;24.20;36.10;;;;;;1550827;75;809;-69
2022/03/02 11:24:11;;;;;;;;;;;24.20;36.20;;;;;;1551025;75;1934;-68
2022/03/02 11:26:17;;;;;;;;;;;24.20;36.30;;;;;;1544225;75;1605;-67
2022/03/02 11:28:20;;;;;;;;;;;24.20;36.40;;;;;;1555254;75;782;-68
2022/03/02 11:30:22;;;;;;;;;;;24.30;36.50;;;;;;1539883;75;1143;-69
2022/03/02 11:32:23;;;;;;;;;;;24.20;36.50;;;;;;1553041;74;733;-68
2022/03/02 11:34:26;;;;;;;;;;;24.20;36.50;;;;;;1552769;75;744;-68
2022/03/02 11:36:28;;;;;;;;;;;24.30;36.70;;;;;;1557133;74;783;-69
2022/03/02 11:38:31;;;;;;;;;;;24.30;36.80;;;;;;1537714;76;743;-68
2022/03/02 11:40:40;;;;;;;;;;;24.30;36.80;;;;;;1539127;74;1215;-68
2022/03/02 11:42:43;;;;;;;;;;;24.20;36.80;;;;;;1549612;75;700;-68
2022/03/02 11:44:45;;;;;;;;;;;24.30;36.90;;;;;;1569118;74;1903;-67
2022/03/02 11:46:47;;;;;;;;;;;24.30;37.00;;;;;;1559245;75;737;-67
2022/03/02 11:48:49;;;;;;;;;;;24.30;37.00;;;;;;1552993;75;721;-68
2022/03/02 11:51:01;;;;;;;;;;;24.30;37.00;;;;;;1546659;74;1159;-68
2022/03/02 11:53:05;;;;;;;;;;;24.30;37.10;;;;;;1563913;74;1768;-67
2022/03/02 11:55:07;;;;;;;;;;;24.40;37.10;;;;;;1553852;74;1410;-69
2022/03/02 11:57:09;;;;;;;;;;;24.40;37.10;;;;;;1554162;74;701;-67
2022/03/02 11:59:14;;;;;;;;;;;24.40;37.10;;;;;;1565473;74;719;-68
2022/03/02 12:01:15;;;;;;;;;;;24.40;37.10;;;;;;1554685;75;1135;-67
2022/03/02 12:03:17;;;;;;;;;;;24.40;37.10;;;;;;1555387;75;748;-67
2022/03/02 12:05:19;;;;;;;;;;;24.50;37.20;;;;;;1543111;75;1949;-67
2022/03/02 12:07:21;;;;;;;;;;;24.40;37.10;;;;;;1555536;75;682;-68
2022/03/02 12:09:25;;;;;;;;;;;24.40;37.10;;;;;;1534988;76;718;-68
2022/03/02 12:11:27;;;;;;;;;;;24.50;37.20;;;;;;1554580;75;1167;-68